createdAt,value
2023-05-19T00:00:47.827Z,9.711636
2023-05-19T00:01:46.640Z,9.711664
2023-05-19T00:02:46.536Z,9.711624
2023-05-19T00:03:45.617Z,9.711660
2023-05-19T00:04:45.620Z,9.711647
2023-05-19T00:05:45.690Z,9.711666
2023-05-19T00:06:45.603Z,9.711655
2023-05-19T00:07:45.601Z,9.711668
2023-05-19T00:08:45.588Z,9.711662
2023-05-19T00:09:45.592Z,9.711745
2023-05-19T00:10:45.568Z,9.711780
2023-05-19T00:11:45.564Z,9.711737
2023-05-19T00:12:45.565Z,9.711864
2023-05-19T00:13:45.523Z,9.711748
2023-05-19T00:14:45.526Z,9.711667
2023-05-19T00:15:45.546Z,9.711715
2023-05-19T00:16:45.530Z,9.711995
2023-05-19T00:17:46.515Z,9.711847
2023-05-19T00:18:46.464Z,9.711792
2023-05-19T00:19:45.484Z,9.712076
2023-05-19T00:27:46.063Z,9.711629
2023-05-19T00:28:47.101Z,9.711431
2023-05-19T00:29:46.063Z,9.711957
2023-05-19T00:30:46.043Z,9.711474
2023-05-19T00:31:46.053Z,9.711582
2023-05-19T00:32:46.082Z,9.711557
2023-05-19T00:33:46.677Z,9.711530
2023-05-19T00:34:46.002Z,9.711495
2023-05-19T00:35:46.019Z,9.711518
2023-05-19T00:36:46.009Z,9.711362
2023-05-19T00:37:45.997Z,9.711534
2023-05-19T00:38:45.987Z,9.711407
2023-05-19T00:39:45.973Z,9.711531
2023-05-19T00:40:45.969Z,9.711519
2023-05-19T00:41:45.946Z,9.711538
2023-05-19T00:42:45.963Z,9.711553
2023-05-19T00:43:45.938Z,9.711522
2023-05-19T00:44:45.966Z,9.711555
2023-05-19T00:45:46.685Z,9.711598
2023-05-19T00:46:45.943Z,9.711586
2023-05-19T00:47:45.944Z,9.711511
2023-05-19T00:48:45.948Z,9.711444
2023-05-19T00:49:45.895Z,9.711443
2023-05-19T00:50:45.903Z,9.711457
2023-05-19T00:51:45.881Z,9.711504
2023-05-19T00:52:45.875Z,9.711560
2023-05-19T00:53:45.866Z,9.711565
2023-05-19T00:54:45.870Z,9.711596
2023-05-19T00:55:45.894Z,9.711576
2023-05-19T00:56:45.857Z,9.711592
2023-05-19T00:57:45.850Z,9.711596
2023-05-19T00:58:45.817Z,9.711556
2023-05-19T00:59:45.817Z,9.711585
2023-05-19T01:00:45.916Z,9.711615
2023-05-19T01:01:45.836Z,9.711606
2023-05-19T01:02:45.859Z,9.711576
2023-05-19T01:03:45.833Z,9.711590
2023-05-19T01:04:45.777Z,9.711600
2023-05-19T01:05:45.781Z,9.711599
2023-05-19T01:06:45.769Z,9.711598
2023-05-19T01:07:45.782Z,9.711646
2023-05-19T01:08:45.759Z,9.711665
2023-05-19T01:09:45.749Z,9.711733
2023-05-19T01:10:45.736Z,9.711726
2023-05-19T01:11:45.734Z,9.711724
2023-05-19T01:12:45.732Z,9.711716
2023-05-19T01:13:46.676Z,9.711730
2023-05-19T01:14:45.712Z,9.711752
2023-05-19T01:15:45.699Z,9.711720
2023-05-19T01:16:45.726Z,9.711700
2023-05-19T01:17:45.723Z,9.711731
2023-05-19T01:18:45.706Z,9.711741
2023-05-19T01:19:45.665Z,9.711760
2023-05-19T01:20:45.726Z,9.711739
2023-05-19T01:21:45.655Z,9.711742
2023-05-19T01:22:45.637Z,9.711773
2023-05-19T01:23:45.649Z,9.711699
2023-05-19T01:24:45.627Z,9.711697
2023-05-19T01:25:45.672Z,9.711716
2023-05-19T01:26:45.609Z,9.711729
2023-05-19T01:27:45.613Z,9.711742
2023-05-19T01:28:45.617Z,9.711797
2023-05-19T01:29:45.603Z,9.711797
2023-05-19T01:30:45.609Z,9.711780
2023-05-19T01:31:45.611Z,9.711669
2023-05-19T01:32:45.624Z,9.711703
2023-05-19T01:33:45.584Z,9.711678
2023-05-19T01:34:45.560Z,9.711650
2023-05-19T01:35:45.539Z,9.711775
2023-05-19T01:36:45.531Z,9.711798
2023-05-19T01:37:45.547Z,9.711799
2023-05-19T01:38:45.536Z,9.711773
2023-05-19T01:39:45.555Z,9.711793
2023-05-19T01:40:45.520Z,9.711937
2023-05-19T01:41:46.196Z,9.711808
2023-05-19T01:42:45.528Z,9.711763
2023-05-19T01:43:45.495Z,9.711731
2023-05-19T01:44:45.489Z,9.711803
2023-05-19T01:45:45.502Z,9.711825
2023-05-19T01:46:45.466Z,9.711660
2023-05-19T01:47:45.523Z,9.711975
2023-05-19T01:48:45.449Z,9.712024
2023-05-19T01:49:45.447Z,9.711827
2023-05-19T01:50:45.431Z,9.711832
2023-05-19T01:51:45.439Z,9.711905
2023-05-19T01:52:45.413Z,9.712033
2023-05-19T01:53:45.454Z,9.711893
2023-05-19T01:54:46.184Z,9.712239
2023-05-19T01:55:45.408Z,9.711842
2023-05-19T01:56:45.389Z,9.711725
2023-05-19T01:57:45.380Z,9.711699
2023-05-19T01:58:45.370Z,9.711926
2023-05-19T01:59:45.379Z,9.711865
2023-05-19T02:00:45.357Z,9.711849
2023-05-19T02:01:45.447Z,9.711523
2023-05-19T02:02:45.342Z,9.711739
2023-05-19T02:03:45.330Z,9.711689
2023-05-19T02:04:45.399Z,9.711804
2023-05-19T02:05:45.303Z,9.711843
2023-05-19T02:06:45.302Z,9.711747
2023-05-19T02:07:45.305Z,9.711767
2023-05-19T02:08:45.297Z,9.711901
2023-05-19T02:09:45.296Z,9.712000
2023-05-19T02:10:45.276Z,9.711935
2023-05-19T02:11:45.275Z,9.711687
2023-05-19T02:12:45.256Z,9.711849
2023-05-19T02:13:45.254Z,9.711864
2023-05-19T02:14:46.244Z,9.711688
2023-05-19T02:15:45.252Z,9.711717
2023-05-19T02:16:45.263Z,9.711755
2023-05-19T02:17:45.333Z,9.711796
2023-05-19T02:18:45.355Z,9.711673
2023-05-19T02:19:45.196Z,9.711654
2023-05-19T02:20:45.207Z,9.711622
2023-05-19T02:21:45.185Z,9.711586
2023-05-19T02:22:45.190Z,9.711587
2023-05-19T02:23:45.175Z,9.711541
2023-05-19T02:24:45.166Z,9.711563
2023-05-19T02:25:45.178Z,9.711575
2023-05-19T02:26:45.147Z,9.711592
2023-05-19T02:27:45.147Z,9.711637
2023-05-19T02:28:45.127Z,9.711606
2023-05-19T02:29:45.132Z,9.711612
2023-05-19T02:30:45.121Z,9.711636
2023-05-19T02:31:45.186Z,9.711632
2023-05-19T02:32:45.138Z,9.711620
2023-05-19T02:33:45.131Z,9.711598
2023-05-19T02:34:45.782Z,9.711559
2023-05-19T02:35:45.082Z,9.711586
2023-05-19T02:36:45.070Z,9.711575
2023-05-19T02:37:45.089Z,9.711614
2023-05-19T02:38:45.048Z,9.711563
2023-05-19T02:39:45.054Z,9.711622
2023-05-19T02:40:45.045Z,9.711638
2023-05-19T02:41:46.032Z,9.711617
2023-05-19T02:42:45.042Z,9.711596
2023-05-19T02:43:45.032Z,9.711590
2023-05-19T02:44:45.009Z,9.711561
2023-05-19T02:45:45.008Z,9.711638
2023-05-19T02:46:45.081Z,9.711668
2023-05-19T02:47:45.022Z,9.711709
2023-05-19T02:48:44.984Z,9.711651
2023-05-19T02:49:44.971Z,9.711619
2023-05-19T02:50:44.962Z,9.711615
2023-05-19T02:51:45.028Z,9.711593
2023-05-19T02:52:46.742Z,9.711652
2023-05-19T02:53:44.923Z,9.711656
2023-05-19T02:54:45.786Z,9.711640
2023-05-19T02:55:44.946Z,9.711650
2023-05-19T02:56:44.929Z,9.711674
2023-05-19T02:57:44.894Z,9.711713
2023-05-19T02:58:44.901Z,9.711691
2023-05-19T02:59:44.903Z,9.711637
2023-05-19T03:00:44.871Z,9.711727
2023-05-19T03:01:44.958Z,9.711741
2023-05-19T03:02:44.912Z,9.711767
2023-05-19T03:03:44.969Z,9.711686
2023-05-19T03:04:44.845Z,9.711729
2023-05-19T03:05:44.829Z,9.711720
2023-05-19T03:06:44.824Z,9.711663
2023-05-19T03:07:44.826Z,9.711637
2023-05-19T03:08:44.808Z,9.711607
2023-05-19T03:09:44.814Z,9.711629
2023-05-19T03:10:45.775Z,9.711707
2023-05-19T03:11:45.709Z,9.711652
2023-05-19T03:12:44.801Z,9.711668
2023-05-19T03:13:44.770Z,9.711682
2023-05-19T03:14:44.766Z,9.711719
2023-05-19T03:15:44.742Z,9.711694
2023-05-19T03:16:44.905Z,9.711696
2023-05-19T03:17:44.865Z,9.711745
2023-05-19T03:18:44.734Z,9.711727
2023-05-19T03:19:44.721Z,9.711766
2023-05-19T03:20:45.305Z,9.711699
2023-05-19T03:21:44.709Z,9.711634
2023-05-19T03:22:44.720Z,9.711676
2023-05-19T03:23:44.705Z,9.711598
2023-05-19T03:24:44.686Z,9.711788
2023-05-19T03:25:44.683Z,9.711638
2023-05-19T03:26:44.666Z,9.711558
2023-05-19T03:27:44.708Z,9.711697
2023-05-19T03:28:44.653Z,9.711790
2023-05-19T03:29:44.641Z,9.711704
2023-05-19T03:30:44.656Z,9.711608
2023-05-19T03:31:44.662Z,9.711495
2023-05-19T03:32:44.712Z,9.711633
2023-05-19T03:33:44.677Z,9.711595
2023-05-19T03:34:44.637Z,9.711604
2023-05-19T03:35:44.621Z,9.711596
2023-05-19T03:36:44.588Z,9.711720
2023-05-19T03:37:44.586Z,9.711564
2023-05-19T03:38:44.579Z,9.711597
2023-05-19T03:39:44.575Z,9.711640
2023-05-19T03:40:44.563Z,9.711784
2023-05-19T03:41:44.576Z,9.711656
2023-05-19T03:42:44.566Z,9.711514
2023-05-19T03:43:44.549Z,9.711589
2023-05-19T03:44:44.550Z,9.711646
2023-05-19T03:45:44.613Z,9.711629
2023-05-19T03:46:44.557Z,9.711654
2023-05-19T03:47:44.577Z,9.711619
2023-05-19T03:48:44.509Z,9.711616
2023-05-19T03:49:44.527Z,9.711633
2023-05-19T03:50:44.497Z,9.711587
2023-05-19T03:51:44.483Z,9.711646
2023-05-19T03:52:44.482Z,9.711671
2023-05-19T03:53:44.460Z,9.711671
2023-05-19T03:54:44.469Z,9.711684
2023-05-19T03:55:44.473Z,9.711697
2023-05-19T03:56:44.456Z,9.711700
2023-05-19T03:57:44.501Z,9.711694
2023-05-19T03:58:44.497Z,9.711747
2023-05-19T03:59:44.414Z,9.711744
2023-05-19T04:00:44.415Z,9.711693
2023-05-19T04:01:44.423Z,9.711672
2023-05-19T04:02:44.542Z,9.711653
2023-05-19T04:03:44.446Z,9.711793
2023-05-19T04:04:44.438Z,9.711754
2023-05-19T04:05:44.393Z,9.711676
2023-05-19T04:06:45.213Z,9.711702
2023-05-19T04:07:44.386Z,9.711579
2023-05-19T04:08:44.364Z,9.711655
2023-05-19T04:09:44.372Z,9.711639
2023-05-19T04:10:44.353Z,9.711800
2023-05-19T04:11:44.341Z,9.711805
2023-05-19T04:12:44.318Z,9.711766
2023-05-19T04:13:45.200Z,9.711670
2023-05-19T04:14:44.306Z,9.711519
2023-05-19T04:15:44.312Z,9.711649
2023-05-19T04:16:44.312Z,9.711513
2023-05-19T04:17:44.368Z,9.711555
2023-05-19T04:18:44.797Z,9.711683
2023-05-19T04:19:44.273Z,9.711720
2023-05-19T04:20:44.274Z,9.711587
2023-05-19T04:21:44.286Z,9.711693
2023-05-19T04:22:44.229Z,9.711691
2023-05-19T04:23:44.274Z,9.711824
2023-05-19T04:24:44.268Z,9.711609
2023-05-19T04:25:44.213Z,9.711554
2023-05-19T04:26:44.200Z,9.711834
2023-05-19T04:27:44.237Z,9.711788
2023-05-19T04:28:44.189Z,9.711826
2023-05-19T04:29:44.190Z,9.711776
2023-05-19T04:30:44.176Z,9.711827
2023-05-19T04:31:44.347Z,9.711809
2023-05-19T04:32:44.234Z,9.711669
2023-05-19T04:33:44.162Z,9.711618
2023-05-19T04:34:44.172Z,9.711748
2023-05-19T04:35:44.173Z,9.711501
2023-05-19T04:36:44.148Z,9.711577
2023-05-19T04:37:44.121Z,9.711638
2023-05-19T04:38:44.109Z,9.711599
2023-05-19T04:39:44.132Z,9.711503
2023-05-19T04:40:44.125Z,9.711412
2023-05-19T04:41:44.099Z,9.711380
2023-05-19T04:42:44.133Z,9.711664
2023-05-19T04:43:44.076Z,9.711540
2023-05-19T04:44:44.065Z,9.711734
2023-05-19T04:45:44.065Z,9.711632
2023-05-19T04:46:44.074Z,9.711713
2023-05-19T04:47:44.105Z,9.711583
2023-05-19T04:48:44.032Z,9.711712
2023-05-19T04:49:44.023Z,9.711558
2023-05-19T04:50:44.023Z,9.711487
2023-05-19T04:51:44.027Z,9.711264
2023-05-19T04:52:44.070Z,9.710625
2023-05-19T04:53:44.004Z,9.711425
2023-05-19T04:55:17.259Z,9.711485
2023-05-19T04:55:43.981Z,9.711586
2023-05-19T04:56:43.972Z,9.711581
2023-05-19T04:57:43.961Z,9.711595
2023-05-19T04:58:43.952Z,9.711670
2023-05-19T04:59:43.956Z,9.711706
2023-05-19T05:00:43.961Z,9.711617
2023-05-19T05:01:44.018Z,9.711587
2023-05-19T05:02:44.007Z,9.711596
2023-05-19T05:03:43.984Z,9.711594
2023-05-19T05:04:43.917Z,9.711557
2023-05-19T05:05:43.891Z,9.711492
2023-05-19T05:06:43.902Z,9.711495
2023-05-19T05:07:43.905Z,9.711537
2023-05-19T05:08:43.872Z,9.711584
2023-05-19T05:09:43.868Z,9.711573
2023-05-19T05:10:43.846Z,9.711514
2023-05-19T05:11:43.854Z,9.711666
2023-05-19T05:12:43.838Z,9.711647
2023-05-19T05:13:43.842Z,9.711682
2023-05-19T05:14:43.850Z,9.711569
2023-05-19T05:15:43.833Z,9.711542
2023-05-19T05:16:43.926Z,9.711647
2023-05-19T05:17:43.881Z,9.711623
2023-05-19T05:18:44.905Z,9.711640
2023-05-19T05:19:44.815Z,9.711596
2023-05-19T05:20:43.782Z,9.711574
2023-05-19T05:21:43.805Z,9.711570
2023-05-19T05:22:43.754Z,9.711503
2023-05-19T05:23:43.755Z,9.711550
2023-05-19T05:24:43.748Z,9.711498
2023-05-19T05:25:43.751Z,9.711496
2023-05-19T05:26:43.734Z,9.711590
2023-05-19T05:27:43.726Z,9.711615
2023-05-19T05:28:43.727Z,9.711619
2023-05-19T05:29:43.702Z,9.711819
2023-05-19T05:30:43.731Z,9.711977
2023-05-19T05:31:43.702Z,9.711958
2023-05-19T05:32:43.722Z,9.712022
2023-05-19T05:33:43.726Z,9.711846
2023-05-19T05:34:43.673Z,9.711752
2023-05-19T05:35:43.666Z,9.712138
2023-05-19T05:36:43.675Z,9.711917
2023-05-19T05:37:43.652Z,9.711884
2023-05-19T05:38:43.633Z,9.712117
2023-05-19T05:39:43.633Z,9.712357
2023-05-19T05:40:43.645Z,9.712352
2023-05-19T05:41:43.631Z,9.712171
2023-05-19T05:42:43.629Z,9.712084
2023-05-19T05:43:43.611Z,9.712021
2023-05-19T05:44:43.589Z,9.711946
2023-05-19T05:45:43.640Z,9.711884
2023-05-19T05:46:43.569Z,9.712008
2023-05-19T05:47:43.582Z,9.712105
2023-05-19T05:48:43.611Z,9.711955
2023-05-19T05:49:43.550Z,9.711945
2023-05-19T05:50:43.578Z,9.711853
2023-05-19T05:51:54.320Z,9.711959
2023-05-19T05:52:45.544Z,9.712000
2023-05-19T05:53:43.537Z,9.712014
2023-05-19T05:54:44.266Z,9.712033
2023-05-19T05:55:43.512Z,9.712089
2023-05-19T05:56:43.496Z,9.712095
2023-05-19T05:57:43.503Z,9.712258
2023-05-19T05:58:43.511Z,9.712133
2023-05-19T05:59:43.487Z,9.711987
2023-05-19T06:00:44.362Z,9.711976
2023-05-19T06:01:43.462Z,9.711837
2023-05-19T06:02:43.572Z,9.711903
2023-05-19T06:03:44.482Z,9.711854
2023-05-19T06:04:43.468Z,9.711864
2023-05-19T06:05:43.500Z,9.711939
2023-05-19T06:06:43.444Z,9.711873
2023-05-19T06:07:43.431Z,9.711853
2023-05-19T06:08:43.418Z,9.711844
2023-05-19T06:09:43.402Z,9.711897
2023-05-19T06:10:45.159Z,9.711930
2023-05-19T06:11:43.394Z,9.711971
2023-05-19T06:12:43.402Z,9.712008
2023-05-19T06:13:43.377Z,9.711753
2023-05-19T06:14:43.415Z,9.711732
2023-05-19T06:15:44.332Z,9.711667
2023-05-19T06:16:43.356Z,9.711714
2023-05-19T06:17:43.363Z,9.711799
2023-05-19T06:18:43.387Z,9.711867
2023-05-19T06:19:43.348Z,9.711864
2023-05-19T06:20:43.352Z,9.711748
2023-05-19T06:21:43.327Z,9.711612
2023-05-19T06:22:43.306Z,9.711535
2023-05-19T06:23:43.306Z,9.711623
2023-05-19T06:24:43.291Z,9.711710
2023-05-19T06:25:44.934Z,9.711747
2023-05-19T06:26:43.371Z,9.711925
2023-05-19T06:27:44.866Z,9.711938
2023-05-19T06:28:43.256Z,9.711966
2023-05-19T06:29:43.354Z,9.711987
2023-05-19T06:30:43.243Z,9.712068
2023-05-19T06:31:43.337Z,9.711964
2023-05-19T06:32:43.267Z,9.712004
2023-05-19T06:33:43.299Z,9.711956
2023-05-19T06:34:43.254Z,9.711791
2023-05-19T06:35:43.198Z,9.711596
2023-05-19T06:36:43.190Z,9.711550
2023-05-19T06:37:43.179Z,9.711733
2023-05-19T06:38:43.214Z,9.711783
2023-05-19T06:39:43.157Z,9.711694
2023-05-19T06:40:43.174Z,9.711691
2023-05-19T06:41:44.881Z,9.711748
2023-05-19T06:42:43.144Z,9.711755
2023-05-19T06:43:43.143Z,9.711783
2023-05-19T06:44:43.129Z,9.711745
2023-05-19T06:45:43.135Z,9.711669
2023-05-19T06:46:43.158Z,9.711720
2023-05-19T06:47:43.132Z,9.711723
2023-05-19T06:48:43.106Z,9.711741
2023-05-19T06:49:43.873Z,9.711759
2023-05-19T06:50:43.394Z,9.711732
2023-05-19T06:51:43.140Z,9.711737
2023-05-19T06:52:43.060Z,9.711669
2023-05-19T06:53:43.068Z,9.711695
2023-05-19T06:54:43.068Z,9.711722
2023-05-19T06:55:57.444Z,9.711703
2023-05-19T06:56:45.057Z,9.711681
2023-05-19T06:57:43.035Z,9.711555
2023-05-19T06:58:43.081Z,9.711446
2023-05-19T06:59:43.011Z,9.711353
2023-05-19T07:00:44.969Z,9.711627
2023-05-19T07:01:43.037Z,9.711724
2023-05-19T07:02:43.062Z,9.711816
2023-05-19T07:03:43.111Z,9.711840
2023-05-19T07:04:43.205Z,9.711747
2023-05-19T07:05:42.962Z,9.711830
2023-05-19T07:06:42.973Z,9.711775
2023-05-19T07:07:43.056Z,9.711762
2023-05-19T07:08:43.005Z,9.711820
2023-05-19T07:09:42.945Z,9.711778
2023-05-19T07:10:42.944Z,9.711707
2023-05-19T07:11:42.920Z,9.711731
2023-05-19T07:12:42.920Z,9.711785
2023-05-19T07:13:42.887Z,9.711837
2023-05-19T07:14:42.891Z,9.711873
2023-05-19T07:15:42.912Z,9.711793
2023-05-19T07:16:42.971Z,9.711760
2023-05-19T07:17:42.969Z,9.711759
2023-05-19T07:18:42.940Z,9.711753
2023-05-19T07:19:42.864Z,9.711788
2023-05-19T07:20:42.921Z,9.711761
2023-05-19T07:21:42.843Z,9.711730
2023-05-19T07:22:42.838Z,9.711827
2023-05-19T07:23:42.848Z,9.711842
2023-05-19T07:24:42.831Z,9.711825
2023-05-19T07:25:42.814Z,9.711868
2023-05-19T07:26:42.840Z,9.711793
2023-05-19T07:27:44.387Z,9.711830
2023-05-19T07:28:42.818Z,9.711835
2023-05-19T07:29:42.814Z,9.711719
2023-05-19T07:30:42.790Z,9.711839
2023-05-19T07:31:42.873Z,9.711912
2023-05-19T07:32:42.774Z,9.711822
2023-05-19T07:33:42.761Z,9.711761
2023-05-19T07:34:42.763Z,9.711842
2023-05-19T07:35:42.760Z,9.711832
2023-05-19T07:36:44.302Z,9.711789
2023-05-19T07:37:42.727Z,9.711993
2023-05-19T07:38:42.757Z,9.712067
2023-05-19T07:39:42.729Z,9.712069
2023-05-19T07:40:42.728Z,9.712142
2023-05-19T07:41:42.706Z,9.712037
2023-05-19T07:42:42.674Z,9.712139
2023-05-19T07:43:42.675Z,9.712134
2023-05-19T07:44:42.674Z,9.712269
2023-05-19T07:45:42.676Z,9.712274
2023-05-19T07:46:42.690Z,9.712658
2023-05-19T07:47:42.679Z,9.712530
2023-05-19T07:48:42.681Z,9.712458
2023-05-19T07:49:42.644Z,9.712424
2023-05-19T07:50:42.620Z,9.712115
2023-05-19T07:51:42.611Z,9.711717
2023-05-19T07:52:42.598Z,9.711906
2023-05-19T07:53:42.929Z,9.711970
2023-05-19T07:54:42.573Z,9.712035
2023-05-19T07:55:43.587Z,9.712418
2023-05-19T07:56:44.312Z,9.712418
2023-05-19T07:57:42.565Z,9.712278
2023-05-19T07:58:42.555Z,9.712461
2023-05-19T07:59:42.558Z,9.712390
2023-05-19T08:00:42.574Z,9.712527
2023-05-19T08:01:42.545Z,9.712317
2023-05-19T08:02:43.437Z,9.712070
2023-05-19T08:03:43.503Z,9.712089
2023-05-19T08:04:43.360Z,9.712251
2023-05-19T08:05:43.398Z,9.712196
2023-05-19T08:06:42.505Z,9.712112
2023-05-19T08:07:42.513Z,9.712190
2023-05-19T08:08:43.423Z,9.712120
2023-05-19T08:09:44.478Z,9.712057
2023-05-19T08:10:42.462Z,9.712237
2023-05-19T08:11:42.472Z,9.712168
2023-05-19T08:12:42.453Z,9.712081
2023-05-19T08:13:42.451Z,9.711901
2023-05-19T08:14:42.478Z,9.711884
2023-05-19T08:15:42.489Z,9.711995
2023-05-19T08:16:43.429Z,9.711990
2023-05-19T08:17:42.450Z,9.712125
2023-05-19T08:18:42.428Z,9.712064
2023-05-19T08:19:42.402Z,9.712378
2023-05-19T08:20:42.401Z,9.711691
2023-05-19T08:21:42.379Z,9.711722
2023-05-19T08:22:42.387Z,9.711611
2023-05-19T08:23:42.917Z,9.711692
2023-05-19T08:24:42.379Z,9.711826
2023-05-19T08:25:43.351Z,9.711702
2023-05-19T08:26:42.359Z,9.711678
2023-05-19T08:27:42.337Z,9.711785
2023-05-19T08:28:42.317Z,9.711557
2023-05-19T08:29:42.327Z,9.711561
2023-05-19T08:30:42.337Z,9.711601
2023-05-19T08:31:43.363Z,9.711727
2023-05-19T08:32:42.339Z,9.711737
2023-05-19T08:33:42.302Z,9.711738
2023-05-19T08:34:42.877Z,9.711753
2023-05-19T08:35:42.284Z,9.711742
2023-05-19T08:36:42.271Z,9.711738
2023-05-19T08:37:42.408Z,9.711727
2023-05-19T08:38:42.264Z,9.711752
2023-05-19T08:39:42.259Z,9.711750
2023-05-19T08:40:42.249Z,9.711756
2023-05-19T08:41:42.226Z,9.711735
2023-05-19T08:42:42.246Z,9.711730
2023-05-19T08:43:42.921Z,9.711713
2023-05-19T08:44:43.267Z,9.711691
2023-05-19T08:45:42.285Z,9.711715
2023-05-19T08:46:42.314Z,9.711666
2023-05-19T08:47:42.218Z,9.711653
2023-05-19T08:48:42.190Z,9.711677
2023-05-19T08:49:42.166Z,9.711718
2023-05-19T08:50:42.174Z,9.711678
2023-05-19T08:51:42.179Z,9.711687
2023-05-19T08:52:42.166Z,9.711683
2023-05-19T08:53:42.236Z,9.711713
2023-05-19T08:54:42.127Z,9.711690
2023-05-19T08:55:42.136Z,9.711659
2023-05-19T08:56:42.110Z,9.711683
2023-05-19T08:57:42.117Z,9.711695
2023-05-19T08:58:42.093Z,9.711700
2023-05-19T08:59:42.101Z,9.711715
2023-05-19T09:00:42.114Z,9.711698
2023-05-19T09:01:42.879Z,9.711680
2023-05-19T09:02:50.603Z,9.711686
2023-05-19T09:03:44.099Z,9.711688
2023-05-19T09:04:43.076Z,9.711654
2023-05-19T09:05:42.059Z,9.711668
2023-05-19T09:06:43.037Z,9.711617
2023-05-19T09:07:42.063Z,9.711619
2023-05-19T09:08:42.029Z,9.711586
2023-05-19T09:09:43.018Z,9.711554
2023-05-19T09:10:41.994Z,9.711575
2023-05-19T09:11:41.997Z,9.711596
2023-05-19T09:12:41.994Z,9.711561
2023-05-19T09:13:41.987Z,9.711532
2023-05-19T09:14:41.996Z,9.711581
2023-05-19T09:15:41.974Z,9.711566
2023-05-19T09:16:42.589Z,9.711611
2023-05-19T09:17:42.992Z,9.711591
2023-05-19T09:18:41.982Z,9.711584
2023-05-19T09:19:41.927Z,9.711547
2023-05-19T09:20:41.957Z,9.711552
2023-05-19T09:21:42.115Z,9.711563
2023-05-19T09:22:41.922Z,9.711541
2023-05-19T09:23:41.921Z,9.711591
2023-05-19T09:24:42.857Z,9.711600
2023-05-19T09:25:41.891Z,9.711592
2023-05-19T09:26:41.884Z,9.711546
2023-05-19T09:27:41.880Z,9.711574
2023-05-19T09:28:41.944Z,9.711622
2023-05-19T09:29:41.855Z,9.711609
2023-05-19T09:30:41.867Z,9.711618
2023-05-19T09:31:41.858Z,9.711580
2023-05-19T09:32:41.888Z,9.711617
2023-05-19T09:33:45.209Z,9.711616
2023-05-19T09:34:42.865Z,9.711538
2023-05-19T09:35:41.876Z,9.711699
2023-05-19T09:36:41.799Z,9.711698
2023-05-19T09:37:42.449Z,9.711744
2023-05-19T09:38:41.779Z,9.711566
2023-05-19T09:39:41.766Z,9.711546
2023-05-19T09:40:42.770Z,9.711357
2023-05-19T09:41:43.459Z,9.711665
2023-05-19T09:42:41.774Z,9.711663
2023-05-19T09:43:41.740Z,9.711741
2023-05-19T09:44:41.740Z,9.711690
2023-05-19T09:45:41.772Z,9.711781
2023-05-19T09:46:41.864Z,9.711685
2023-05-19T09:47:41.765Z,9.711661
2023-05-19T09:48:42.389Z,9.711691
2023-05-19T09:49:41.729Z,9.711799
2023-05-19T09:50:41.683Z,9.711897
2023-05-19T09:51:41.679Z,9.711878
2023-05-19T09:52:41.667Z,9.711881
2023-05-19T09:53:41.669Z,9.711811
2023-05-19T09:54:41.664Z,9.711891
2023-05-19T09:55:41.642Z,9.711989
2023-05-19T09:56:41.655Z,9.711843
2023-05-19T09:57:41.783Z,9.711678
2023-05-19T09:58:41.672Z,9.711851
2023-05-19T09:59:41.617Z,9.711698
2023-05-19T10:00:41.610Z,9.711825
2023-05-19T10:01:41.637Z,9.711868
2023-05-19T10:02:41.675Z,9.711880
2023-05-19T10:03:42.589Z,9.711685
2023-05-19T21:22:54.945Z,9.711767
2023-05-19T21:23:54.973Z,9.712319
2023-05-19T21:24:54.968Z,9.714191
2023-05-19T21:25:54.931Z,9.714558
2023-05-19T21:26:54.922Z,9.716872
2023-05-19T21:27:54.936Z,9.714097
2023-05-19T21:28:54.910Z,9.712171
2023-05-19T21:29:54.891Z,9.711493
2023-05-19T21:30:54.900Z,9.711293
2023-05-19T21:31:54.887Z,9.711260
2023-05-19T21:32:54.972Z,9.711340
2023-05-19T21:33:54.870Z,9.711591
2023-05-19T21:34:54.839Z,9.711674
2023-05-19T21:35:54.830Z,9.711666
2023-05-19T21:36:54.832Z,9.711624
2023-05-19T21:37:54.824Z,9.711633
2023-05-19T21:38:54.808Z,9.711585
2023-05-19T21:39:54.801Z,9.711595
2023-05-19T21:40:54.794Z,9.711661
2023-05-19T21:41:54.784Z,9.711695
2023-05-19T21:42:54.764Z,9.711701
2023-05-19T21:43:54.780Z,9.711669
2023-05-19T21:44:54.749Z,9.711603
2023-05-19T21:45:54.742Z,9.711637
2023-05-19T21:46:54.770Z,9.711629
2023-05-19T21:47:54.764Z,9.711682
2023-05-19T21:48:54.733Z,9.711701
2023-05-19T21:49:54.725Z,9.711751
2023-05-19T21:50:54.718Z,9.711693
2023-05-19T21:51:54.738Z,9.711688
2023-05-19T21:52:54.702Z,9.711739
2023-05-19T21:53:54.789Z,9.711685
2023-05-19T21:54:54.677Z,9.711692
2023-05-19T21:55:54.663Z,9.711612
2023-05-19T21:56:54.648Z,9.711634
2023-05-19T21:57:55.718Z,9.711632
2023-05-19T21:58:55.637Z,9.711646
2023-05-19T21:59:54.637Z,9.711442
2023-05-19T22:00:54.644Z,9.711290
2023-05-19T22:01:55.700Z,9.711259
2023-05-19T22:02:54.687Z,9.711259
2023-05-19T22:03:54.669Z,9.711229
2023-05-19T22:04:54.596Z,9.711487
2023-05-19T22:05:54.613Z,9.711647
2023-05-19T22:06:54.591Z,9.711604
2023-05-19T22:07:54.579Z,9.711331
2023-05-19T22:08:55.232Z,9.711113
2023-05-19T22:09:54.591Z,9.710925
2023-05-19T22:10:54.538Z,9.711264
2023-05-19T22:11:54.565Z,9.711541
2023-05-19T22:12:54.561Z,9.711406
2023-05-19T22:13:54.522Z,9.711288
2023-05-19T22:14:54.510Z,9.711438
2023-05-19T22:15:54.535Z,9.711492
2023-05-19T22:16:54.543Z,9.711497
2023-05-19T22:17:54.497Z,9.711430
2023-05-19T22:18:54.508Z,9.711537
2023-05-19T22:19:54.473Z,9.711607
2023-05-19T22:20:54.475Z,9.711431
2023-05-19T22:22:02.007Z,9.711486
2023-05-19T22:22:56.690Z,9.711600
2023-05-19T22:23:54.457Z,9.711569
2023-05-19T22:24:54.553Z,9.711489
2023-05-19T22:25:55.369Z,9.711547
2023-05-19T22:26:54.440Z,9.711567
2023-05-19T22:27:54.435Z,9.711593
2023-05-19T22:28:54.438Z,9.711623
2023-05-19T22:29:54.419Z,9.711544
2023-05-19T22:30:54.499Z,9.711516
2023-05-19T22:31:54.389Z,9.711478
2023-05-19T22:32:54.494Z,9.711570
2023-05-19T22:33:54.419Z,9.711547
2023-05-19T22:34:54.449Z,9.711627
2023-05-19T22:35:55.284Z,9.711624
2023-05-19T22:36:55.307Z,9.711613
2023-05-19T22:37:54.337Z,9.711679
2023-05-19T22:38:54.328Z,9.711588
2023-05-19T22:39:54.330Z,9.711635
2023-05-19T22:40:54.313Z,9.711571
2023-05-19T22:41:55.282Z,9.711522
2023-05-19T22:42:54.310Z,9.711570
2023-05-19T22:43:54.299Z,9.711544
2023-05-19T22:44:54.277Z,9.711584
2023-05-19T22:45:54.282Z,9.711589
2023-05-19T22:46:55.139Z,9.711576
2023-05-19T22:47:54.320Z,9.711592
2023-05-19T22:48:54.252Z,9.711592
2023-05-19T22:49:57.121Z,9.711589
2023-05-19T22:50:54.230Z,9.711543
2023-05-19T22:51:54.247Z,9.711574
2023-05-19T22:52:54.210Z,9.711566
2023-05-19T22:53:54.213Z,9.711565
2023-05-19T22:54:54.207Z,9.711550
2023-05-19T22:55:54.204Z,9.711572
2023-05-19T22:56:54.192Z,9.711588
2023-05-19T22:57:54.169Z,9.711664
2023-05-19T22:58:54.454Z,9.711724
2023-05-19T22:59:54.258Z,9.711615
2023-05-19T23:00:54.175Z,9.711599
2023-05-19T23:01:54.150Z,9.711600
2023-05-19T23:02:54.230Z,9.711615
2023-05-19T23:03:54.149Z,9.711646
2023-05-19T23:04:54.138Z,9.711611
2023-05-19T23:05:54.101Z,9.711543
2023-05-19T23:06:54.730Z,9.711655
2023-05-19T23:07:54.086Z,9.711637
2023-05-19T23:08:54.154Z,9.711602
2023-05-19T23:09:54.088Z,9.711609